createdAt,value
2022-09-18T00:01:45.229Z,99380.80
2022-09-18T00:04:15.132Z,99376.60
2022-09-18T00:06:45.777Z,99378.20
2022-09-18T00:09:16.077Z,99377.60
2022-09-18T00:11:48.073Z,99372.20
2022-09-18T00:14:21.551Z,99373.60
2022-09-18T00:16:50.922Z,99380.20
2022-09-18T00:19:19.837Z,99376.40
2022-09-18T00:21:50.887Z,99373.60
2022-09-18T00:24:19.661Z,99370.80
2022-09-18T00:26:48.174Z,99364.00
2022-09-18T00:29:18.181Z,99362.60
2022-09-18T00:31:46.346Z,99364.80
2022-09-18T00:34:16.389Z,99363.60
2022-09-18T00:36:44.924Z,99353.60
2022-09-18T00:39:13.137Z,99353.60
2022-09-18T00:41:43.162Z,99353.40
2022-09-18T00:44:42.084Z,99352.60
2022-09-18T00:47:09.750Z,99347.80
2022-09-18T00:49:45.332Z,99353.40
2022-09-18T00:52:15.759Z,99354.80
2022-09-18T00:54:49.948Z,99359.00
2022-09-18T00:57:25.425Z,99358.60
2022-09-18T00:59:54.859Z,99362.00
2022-09-18T01:02:22.866Z,99357.20
2022-09-18T01:04:51.571Z,99364.00
2022-09-18T01:07:50.259Z,99356.20
2022-09-18T01:10:55.303Z,99358.60
2022-09-18T01:13:37.652Z,99353.40
2022-09-18T01:16:40.956Z,99352.20
2022-09-18T01:20:06.754Z,99356.60
2022-09-18T01:22:54.406Z,99358.80
2022-09-18T01:25:56.305Z,99363.40
2022-09-18T01:28:39.778Z,99362.20
2022-09-18T01:31:17.756Z,99359.60
2022-09-18T01:34:12.771Z,99361.00
2022-09-18T01:36:49.094Z,99358.00
2022-09-18T01:39:35.562Z,99360.00
2022-09-18T01:42:08.507Z,99356.60
2022-09-18T01:44:41.229Z,99355.80
2022-09-18T01:47:14.707Z,99353.80
2022-09-18T01:49:48.461Z,99354.00
2022-09-18T01:52:31.631Z,99359.60
2022-09-18T01:55:03.571Z,99363.40
2022-09-18T01:58:03.615Z,99362.80
2022-09-18T02:00:32.672Z,99360.20
2022-09-18T02:03:11.738Z,99367.00
2022-09-18T02:06:11.455Z,99362.20
2022-09-18T02:08:53.432Z,99359.40
2022-09-18T02:11:22.988Z,99361.80
2022-09-18T02:14:07.373Z,99356.60
2022-09-18T02:16:50.865Z,99357.00
2022-09-18T02:19:41.267Z,99361.40
2022-09-18T02:22:17.806Z,99362.60
2022-09-18T02:24:50.657Z,99361.40
2022-09-18T02:27:21.847Z,99357.00
2022-09-18T02:29:49.835Z,99363.60
2022-09-18T02:32:17.857Z,99364.20
2022-09-18T02:34:45.957Z,99366.00
2022-09-18T02:37:41.754Z,99366.40
2022-09-18T02:40:35.772Z,99369.00
2022-09-18T02:43:54.673Z,99364.00
2022-09-18T02:46:47.135Z,99364.00
2022-09-18T02:49:30.518Z,99358.60
2022-09-18T02:52:29.914Z,99355.60
2022-09-18T02:55:07.889Z,99356.00
2022-09-18T02:57:47.254Z,99353.00
2022-09-18T03:00:18.853Z,99352.00
2022-09-18T03:02:47.850Z,99347.60
2022-09-18T03:05:15.616Z,99344.00
2022-09-18T03:07:43.629Z,99345.40
2022-09-18T03:10:11.940Z,99345.80
2022-09-18T03:12:39.693Z,99345.20
2022-09-18T03:15:08.574Z,99348.60
2022-09-18T03:17:36.665Z,99342.60
2022-09-18T03:20:07.503Z,99336.60
2022-09-18T03:22:35.503Z,99336.40
2022-09-18T03:25:03.706Z,99337.20
2022-09-18T03:27:31.445Z,99337.40
2022-09-18T03:29:59.348Z,99337.60
2022-09-18T03:32:27.131Z,99340.40
2022-09-18T03:34:56.015Z,99337.60
2022-09-18T03:37:24.405Z,99336.60
2022-09-18T03:39:52.169Z,99338.20
2022-09-18T03:42:19.894Z,99337.20
2022-09-18T03:44:47.835Z,99334.40
2022-09-18T03:47:15.910Z,99330.60
2022-09-18T03:49:43.658Z,99336.00
2022-09-18T03:52:11.404Z,99335.20
2022-09-18T03:54:39.509Z,99338.20
2022-09-18T03:57:07.427Z,99343.80
2022-09-18T03:59:35.171Z,99341.40
2022-09-18T04:02:03.114Z,99346.60
2022-09-18T04:04:31.489Z,99343.80
2022-09-18T04:06:59.298Z,99346.60
2022-09-18T04:09:27.110Z,99354.20
2022-09-18T04:11:54.873Z,99357.40
2022-09-18T04:14:25.631Z,99361.60
2022-09-18T04:16:57.238Z,99361.60
2022-09-18T04:19:25.130Z,99359.00
2022-09-18T04:21:52.914Z,99365.20
2022-09-18T04:24:20.680Z,99366.80
2022-09-18T04:26:49.448Z,99368.40
2022-09-18T04:29:17.210Z,99367.60
2022-09-18T04:31:45.284Z,99370.40
2022-09-18T04:34:13.090Z,99370.00
2022-09-18T04:36:40.868Z,99369.80
2022-09-18T04:39:08.588Z,99369.80
2022-09-18T04:41:37.061Z,99367.80
2022-09-18T04:44:05.095Z,99372.80
2022-09-18T04:46:33.667Z,99375.00
2022-09-18T04:49:01.474Z,99379.00
2022-09-18T04:51:29.239Z,99377.80
2022-09-18T04:53:57.117Z,99384.60
2022-09-18T04:56:24.889Z,99387.00
2022-09-18T04:58:52.651Z,99383.20
2022-09-18T05:01:20.473Z,99389.60
2022-09-18T05:03:48.285Z,99392.40
2022-09-18T05:06:16.121Z,99382.80
2022-09-18T05:08:43.890Z,99388.60
2022-09-18T05:11:11.672Z,99393.80
2022-09-18T05:13:40.376Z,99396.60
2022-09-18T05:16:08.161Z,99397.60
2022-09-18T05:18:36.083Z,99393.60
2022-09-18T05:21:05.895Z,99389.00
2022-09-18T05:23:34.672Z,99390.40
2022-09-18T05:26:03.055Z,99389.00
2022-09-18T05:28:31.537Z,99387.20
2022-09-18T05:31:00.847Z,99392.80
2022-09-18T05:33:29.156Z,99388.00
2022-09-18T05:35:58.767Z,99387.40
2022-09-18T05:38:27.096Z,99384.20
2022-09-18T05:40:54.855Z,99384.80
2022-09-18T05:43:22.620Z,99380.00
2022-09-18T05:45:50.404Z,99376.60
2022-09-18T05:48:18.291Z,99379.40
2022-09-18T05:50:46.240Z,99378.00
2022-09-18T05:53:19.742Z,99380.20
2022-09-18T05:55:48.353Z,99385.00
2022-09-18T05:58:19.086Z,99384.80
2022-09-18T06:00:48.768Z,99387.20
2022-09-18T06:03:17.034Z,99384.40
2022-09-18T06:05:53.245Z,99380.40
2022-09-18T06:08:21.867Z,99378.80
2022-09-18T06:10:49.894Z,99387.20
2022-09-18T06:13:19.259Z,99385.80
2022-09-18T06:15:52.472Z,99381.60
2022-09-18T06:18:20.606Z,99386.20
2022-09-18T06:20:55.233Z,99388.80
2022-09-18T06:23:25.760Z,99389.20
2022-09-18T06:26:03.059Z,99389.40
2022-09-18T06:28:32.786Z,99386.20
2022-09-18T06:31:04.403Z,99387.60
2022-09-18T06:33:35.664Z,99380.60
2022-09-18T06:36:08.456Z,99377.40
2022-09-18T06:38:36.373Z,99378.40
2022-09-18T06:41:04.115Z,99385.00
2022-09-18T06:43:31.946Z,99385.00
2022-09-18T06:45:59.708Z,99384.20
2022-09-18T06:48:29.464Z,99384.80
2022-09-18T06:50:59.757Z,99384.40
2022-09-18T06:53:28.295Z,99382.20
2022-09-18T06:56:00.216Z,99380.60
2022-09-18T06:58:28.027Z,99377.20
2022-09-18T07:01:01.088Z,99378.60
2022-09-18T07:03:29.131Z,99378.40
2022-09-18T07:05:56.956Z,99380.60
2022-09-18T07:12:33.176Z,99375.60
2022-09-18T07:15:09.781Z,99378.40
2022-09-18T07:17:41.358Z,99368.40
2022-09-18T07:20:15.282Z,99376.60
2022-09-18T07:22:57.599Z,99375.60
2022-09-18T07:25:38.465Z,99370.60
2022-09-18T07:28:11.350Z,99371.80
2022-09-18T07:30:40.358Z,99372.60
2022-09-18T07:33:11.134Z,99368.40
2022-09-18T07:35:49.390Z,99369.60
2022-09-18T07:38:17.191Z,99369.80
2022-09-18T07:40:54.081Z,99375.00
2022-09-18T07:47:22.163Z,99372.60
2022-09-18T07:52:35.713Z,99370.60
2022-09-18T07:55:13.776Z,99375.20
2022-09-18T07:57:41.581Z,99375.20
2022-09-18T08:00:11.365Z,99376.40
2022-09-18T08:02:39.275Z,99376.80
2022-09-18T08:05:10.467Z,99376.60
2022-09-18T08:07:47.609Z,99372.60
2022-09-18T08:10:20.058Z,99379.40
2022-09-18T08:12:56.707Z,99373.00
2022-09-18T08:15:24.479Z,99374.60
2022-09-18T08:17:58.879Z,99374.20
2022-09-18T08:20:31.195Z,99374.60
2022-09-18T08:23:12.884Z,99380.20
2022-09-18T08:27:11.119Z,99386.00
2022-09-18T08:29:40.089Z,99386.60
2022-09-18T08:32:24.722Z,99384.40
2022-09-18T08:34:54.048Z,99393.20
2022-09-18T08:37:23.041Z,99388.80
2022-09-18T08:39:55.665Z,99388.80
2022-09-18T08:43:09.192Z,99392.60
2022-09-18T08:46:01.602Z,99391.80
2022-09-18T08:48:47.530Z,99393.20
2022-09-18T08:52:00.846Z,99389.20
2022-09-18T08:54:49.758Z,99388.40
2022-09-18T08:57:43.293Z,99390.40
2022-09-18T09:00:25.791Z,99388.40
2022-09-18T09:03:10.600Z,99390.20
2022-09-18T09:05:54.905Z,99392.80
2022-09-18T09:13:15.057Z,99388.40
2022-09-18T09:16:09.779Z,99393.40
2022-09-18T09:19:01.963Z,99395.00
2022-09-18T09:22:01.706Z,99399.40
2022-09-18T09:25:03.439Z,99399.00
2022-09-18T09:27:54.120Z,99404.60
2022-09-18T09:30:23.653Z,99402.40
2022-09-18T09:33:25.636Z,99397.80
2022-09-18T09:42:14.283Z,99404.00
2022-09-18T09:45:43.590Z,99407.60
2022-09-18T09:48:46.974Z,99411.80
2022-09-18T09:52:53.422Z,99414.20
2022-09-18T09:55:37.972Z,99414.00
2022-09-18T09:59:08.432Z,99419.20
2022-09-18T10:02:04.070Z,99418.20
2022-09-18T10:05:08.127Z,99418.00
2022-09-18T10:07:54.278Z,99422.40
2022-09-18T10:10:52.988Z,99420.60
2022-09-18T10:14:22.310Z,99418.20
2022-09-18T10:16:55.643Z,99422.20
2022-09-18T10:19:40.538Z,99425.00
2022-09-18T10:22:32.024Z,99425.20
2022-09-18T10:25:47.245Z,99426.20
2022-09-18T10:28:16.204Z,99428.20
2022-09-18T10:31:13.116Z,99424.40
2022-09-18T10:33:45.543Z,99426.80
2022-09-18T10:36:49.305Z,99426.20
2022-09-18T10:39:57.878Z,99426.40
2022-09-18T10:42:58.018Z,99425.80
2022-09-18T10:45:45.171Z,99421.80
2022-09-18T10:48:29.535Z,99418.80
2022-09-18T10:51:03.255Z,99416.00
2022-09-18T10:53:39.090Z,99412.20
2022-09-18T10:56:21.672Z,99406.80
2022-09-18T10:58:52.506Z,99409.60
2022-09-18T11:01:30.203Z,99408.40
2022-09-18T11:04:06.915Z,99413.20
2022-09-18T11:06:38.157Z,99411.60
2022-09-18T11:09:19.518Z,99420.80
2022-09-18T11:11:54.808Z,99418.40
2022-09-18T11:14:28.060Z,99419.60
2022-09-18T11:18:18.624Z,99418.60
2022-09-18T11:20:48.011Z,99418.60
2022-09-18T11:23:38.306Z,99415.80
2022-09-18T11:26:37.154Z,99414.80
2022-09-18T11:29:25.233Z,99413.00
2022-09-18T11:32:27.785Z,99411.20
2022-09-18T11:35:02.781Z,99405.20
2022-09-18T11:37:49.075Z,99402.80
2022-09-18T11:40:30.541Z,99402.80
2022-09-18T11:43:03.358Z,99397.60
2022-09-18T11:45:53.402Z,99399.60
2022-09-18T11:48:32.790Z,99400.80
2022-09-18T11:51:13.639Z,99404.60
2022-09-18T11:54:15.912Z,99404.20
2022-09-18T11:56:55.417Z,99406.00
2022-09-18T11:59:34.399Z,99400.20
2022-09-18T12:02:46.017Z,99399.00
2022-09-18T12:05:27.160Z,99399.80
2022-09-18T12:08:23.700Z,99400.20
2022-09-18T12:11:27.480Z,99400.00
2022-09-18T12:14:18.836Z,99410.80
2022-09-18T12:17:04.429Z,99412.00
2022-09-18T12:19:49.483Z,99410.80
2022-09-18T12:22:30.453Z,99407.80
2022-09-18T12:26:02.125Z,99416.40
2022-09-18T12:29:32.404Z,99414.80
2022-09-18T12:32:40.452Z,99410.60
2022-09-18T12:36:03.213Z,99415.80
2022-09-18T12:39:00.515Z,99417.60
2022-09-18T12:42:17.539Z,99410.20
2022-09-18T12:45:19.404Z,99415.40
2022-09-18T12:48:28.195Z,99421.60
2022-09-18T12:51:42.022Z,99420.00
2022-09-18T12:54:52.591Z,99422.80
2022-09-18T12:57:58.980Z,99428.40
2022-09-18T13:00:30.756Z,99434.60
2022-09-18T13:03:29.412Z,99454.00
2022-09-18T13:10:42.025Z,99459.00
2022-09-18T13:13:55.790Z,99473.80
2022-09-18T13:16:51.738Z,99471.60
2022-09-18T13:20:43.759Z,99483.20
2022-09-18T13:23:46.335Z,99490.80
2022-09-18T13:26:16.134Z,99492.40
2022-09-18T13:28:51.954Z,99506.00
2022-09-18T13:31:32.454Z,99522.00
2022-09-18T13:34:16.578Z,99530.40
2022-09-18T13:36:47.157Z,99538.20
2022-09-18T13:39:55.336Z,99542.40
2022-09-18T13:42:43.160Z,99544.60
2022-09-18T13:45:20.430Z,99547.80
2022-09-18T13:48:21.218Z,99542.20
2022-09-18T13:51:00.547Z,99540.40
2022-09-18T13:53:42.229Z,99540.60
2022-09-18T13:56:20.114Z,99540.20
2022-09-18T13:58:56.173Z,99539.40
2022-09-18T14:01:43.398Z,99538.80
2022-09-18T14:04:48.791Z,99540.60
2022-09-18T14:07:16.464Z,99540.20
2022-09-18T14:10:03.072Z,99550.80
2022-09-18T14:12:36.270Z,99543.40
2022-09-18T14:15:26.180Z,99543.40
2022-09-18T14:18:14.647Z,99537.60
2022-09-18T14:20:52.713Z,99532.60
2022-09-18T14:23:35.868Z,99530.00
2022-09-18T14:26:34.922Z,99526.40
2022-09-18T14:29:12.284Z,99528.40
2022-09-18T14:32:10.445Z,99525.20
2022-09-18T14:34:40.629Z,99522.40
2022-09-18T14:37:35.061Z,99520.60
2022-09-18T14:40:31.367Z,99519.40
2022-09-18T14:42:59.209Z,99523.20
2022-09-18T14:45:31.050Z,99525.00
2022-09-18T14:48:22.617Z,99525.20
2022-09-18T14:52:03.616Z,99524.00
2022-09-18T14:54:48.780Z,99525.80
2022-09-18T14:57:25.710Z,99530.00
2022-09-18T15:00:01.590Z,99530.20
2022-09-18T15:02:37.422Z,99536.20
2022-09-18T15:05:22.134Z,99537.60
2022-09-18T15:08:01.156Z,99535.80
2022-09-18T15:10:30.101Z,99540.60
2022-09-18T15:12:59.841Z,99538.60
2022-09-18T15:15:33.716Z,99539.20
2022-09-18T15:18:05.883Z,99542.60
2022-09-18T15:20:36.829Z,99540.40
2022-09-18T15:23:33.104Z,99542.00
2022-09-18T15:26:16.163Z,99544.00
2022-09-18T15:31:44.723Z,99543.60
2022-09-18T15:34:27.412Z,99545.20
2022-09-18T15:37:37.798Z,99543.00
2022-09-18T15:42:44.945Z,99543.40
2022-09-18T15:48:53.345Z,99550.00
2022-09-18T15:51:35.639Z,99542.60
2022-09-18T15:54:12.967Z,99547.00
2022-09-18T15:58:16.537Z,99553.60
2022-09-18T16:13:52.373Z,99564.20
2022-09-18T16:17:15.164Z,99566.40
2022-09-18T17:20:00.892Z,99570.00
2022-09-18T17:27:16.033Z,99561.40
2022-09-18T17:30:31.989Z,99561.60
2022-09-18T17:33:24.486Z,99562.80
2022-09-18T17:36:48.649Z,99565.00
2022-09-18T18:02:17.989Z,99580.40
2022-09-18T18:09:14.159Z,99584.20
2022-09-18T18:13:09.068Z,99585.80
2022-09-18T18:20:59.822Z,99586.60
2022-09-18T18:27:40.455Z,99593.20
2022-09-18T18:31:36.485Z,99597.80
2022-09-18T18:34:42.383Z,99595.60
2022-09-18T18:37:57.502Z,99594.80
2022-09-18T18:40:32.029Z,99601.80
2022-09-18T18:43:14.084Z,99602.60
2022-09-18T18:46:20.652Z,99600.60
2022-09-18T18:49:04.498Z,99597.40
2022-09-18T18:51:48.028Z,99594.40
2022-09-18T18:54:30.563Z,99592.20
2022-09-18T18:57:01.755Z,99591.40
2022-09-18T18:59:32.466Z,99591.20
2022-09-18T19:02:04.215Z,99589.60
2022-09-18T19:04:40.584Z,99585.60
2022-09-18T19:07:08.590Z,99581.00
2022-09-18T19:09:39.848Z,99579.80
2022-09-18T19:12:07.800Z,99582.40
2022-09-18T19:14:38.272Z,99582.00
2022-09-18T19:17:35.247Z,99587.40
2022-09-18T19:20:26.506Z,99579.60
2022-09-18T19:23:31.961Z,99578.80
2022-09-18T19:26:10.218Z,99580.60
2022-09-18T19:29:16.565Z,99572.00
2022-09-18T19:32:01.618Z,99573.60
2022-09-18T19:34:30.132Z,99575.40
2022-09-18T19:37:06.645Z,99574.20
2022-09-18T19:39:55.296Z,99579.60
2022-09-18T19:42:37.467Z,99577.40
2022-09-18T19:45:09.583Z,99580.20
2022-09-18T19:47:51.959Z,99585.80
2022-09-18T19:50:48.766Z,99589.40
2022-09-18T19:53:16.985Z,99582.80
2022-09-18T19:55:47.225Z,99579.60
2022-09-18T19:59:16.425Z,99582.40
2022-09-18T20:01:52.201Z,99581.80
2022-09-18T20:04:31.276Z,99586.60
2022-09-18T20:07:19.574Z,99582.40
2022-09-18T20:09:47.695Z,99582.80
2022-09-18T20:12:16.046Z,99581.40
2022-09-18T20:14:44.014Z,99577.60
2022-09-18T20:21:08.442Z,99581.40
2022-09-18T20:23:48.562Z,99577.00
2022-09-18T20:26:19.654Z,99582.40
2022-09-18T20:28:48.661Z,99579.40
2022-09-18T20:31:36.708Z,99576.80
2022-09-18T20:34:05.108Z,99575.00
2022-09-18T20:37:18.244Z,99578.40
2022-09-18T20:44:15.595Z,99577.20
2022-09-18T20:46:44.534Z,99579.40
2022-09-18T20:49:20.055Z,99573.00
2022-09-18T20:51:47.820Z,99574.00
2022-09-18T20:54:24.800Z,99568.00
2022-09-18T20:56:52.942Z,99560.40
2022-09-18T20:59:26.623Z,99567.00
2022-09-18T21:01:57.224Z,99567.60
2022-09-18T21:04:29.286Z,99567.00
2022-09-18T21:07:02.715Z,99565.00
2022-09-18T21:09:32.452Z,99564.40
2022-09-18T21:12:03.294Z,99565.80
2022-09-18T21:14:34.038Z,99563.80
2022-09-18T21:17:10.288Z,99566.60
2022-09-18T21:19:38.888Z,99566.00
2022-09-18T21:24:05.947Z,99572.60
2022-09-18T21:26:55.656Z,99569.80
2022-09-18T21:29:30.070Z,99575.60
2022-09-18T21:32:55.392Z,99575.20
2022-09-18T21:35:23.708Z,99581.00
2022-09-18T21:37:54.537Z,99582.60
2022-09-18T21:40:22.360Z,99583.60
2022-09-18T21:42:59.182Z,99579.20
2022-09-18T21:45:36.900Z,99581.20
2022-09-18T21:48:18.736Z,99573.60
2022-09-18T21:50:49.283Z,99577.40
2022-09-18T21:53:17.016Z,99577.40
2022-09-18T21:55:44.879Z,99580.00
2022-09-18T21:58:19.391Z,99580.20
2022-09-18T22:00:53.749Z,99581.40
2022-09-18T22:04:45.844Z,99592.00
2022-09-18T22:07:13.758Z,99590.80
2022-09-18T22:09:43.074Z,99596.40
2022-09-18T22:12:14.297Z,99602.20
2022-09-18T22:14:45.444Z,99602.40
2022-09-18T22:17:16.660Z,99606.20
2022-09-18T22:19:44.639Z,99604.60
2022-09-18T22:22:14.636Z,99604.80
2022-09-18T22:24:45.088Z,99604.60
2022-09-18T22:27:16.090Z,99609.60
2022-09-18T22:29:46.080Z,99617.40
2022-09-18T22:32:16.959Z,99618.00
2022-09-18T22:38:09.244Z,99617.20
2022-09-18T22:44:26.477Z,99630.20
2022-09-18T22:47:20.392Z,99631.40
2022-09-18T22:49:48.337Z,99626.60
2022-09-18T22:53:32.825Z,99626.60
2022-09-18T22:56:26.891Z,99619.40
2022-09-18T22:59:02.407Z,99624.00
2022-09-18T23:02:02.837Z,99624.00
2022-09-18T23:04:39.819Z,99622.60
2022-09-18T23:07:39.866Z,99622.00
2022-09-18T23:11:04.718Z,99616.80
2022-09-18T23:13:59.253Z,99612.80
2022-09-18T23:22:56.308Z,99600.20
2022-09-18T23:25:44.405Z,99592.60
2022-09-18T23:28:49.894Z,99590.80
2022-09-18T23:31:37.950Z,99581.60
2022-09-18T23:34:22.673Z,99582.20
2022-09-18T23:37:04.136Z,99577.40
2022-09-18T23:39:44.912Z,99580.40
2022-09-18T23:42:21.224Z,99571.60
2022-09-18T23:44:49.928Z,99575.20
2022-09-18T23:47:18.504Z,99571.20
2022-09-18T23:53:01.250Z,99574.80
2022-09-18T23:55:53.168Z,99568.40
2022-09-18T23:58:24.629Z,99569.80
